Hlavní strana
METAR-TAF:

METAR-TAF

Letiště :

Lima, Ohio, Spojené státy americké

zeměpisná šířka: 40-42-29N, zeměpisná délka: 084-01-17W, výška: 297 m

Aktuální stav počasí

Zpráva byla vytvořena před 1 hodinou a 0 minutami, v 07:53 UTC
Východoseverovýchodní vítr 3 kt
Teplota -7°C
Vlhkost vzduchu 73%
Tlak 1035 hPa
Viditelnost: 16.1 km
Zataženo ve výšce 3100 ft

METAR: KAOH 210753Z AUTO 06003KT 10SM OVC031 M07/M11 A3056 RMK AO2 SLP365 T10671106 $

Čas: 03:53 (08:53 UTC)


TAF: chybějící

Stav a předpovědi počasí z více než 4 000 letišť (zprávy METAR a TAF).

Červené a žluté tečky na mapě představují dostupné meteorologické stanice.

Když kurzor umístíte na tečku, zobrazí se název stanice.

Pak kliknutím zobrazíte stav a předpověď počasí.

Chcete-li změnit mapu, kliknutím na zelené tlačítko se znaménkem +mapu přiblížíte, kliknutím na zelené tlačítko se znaménkem – mapu oddálíte a kliknutím na zelené šipky přejdete na sousední mapy.


METAR-TAF: